createdAt,value
2022-09-16T00:00:44.005Z,90.31
2022-09-16T00:01:44.008Z,90.42
2022-09-16T00:02:43.948Z,89.20
2022-09-16T00:03:43.954Z,89.09
2022-09-16T00:04:43.951Z,89.66
2022-09-16T00:05:43.965Z,89.97
2022-09-16T00:06:43.946Z,90.01
2022-09-16T00:07:43.940Z,90.07
2022-09-16T00:08:44.045Z,90.88
2022-09-16T00:09:43.936Z,91.29
2022-09-16T00:10:43.941Z,90.99
2022-09-16T00:11:43.940Z,91.49
2022-09-16T00:12:43.939Z,91.60
2022-09-16T00:13:43.934Z,91.69
2022-09-16T00:14:43.935Z,91.29
2022-09-16T00:15:43.934Z,90.27
2022-09-16T00:16:44.002Z,90.99
2022-09-16T00:17:43.929Z,91.19
2022-09-16T00:18:43.926Z,91.19
2022-09-16T00:19:43.927Z,90.68
2022-09-16T00:20:43.925Z,90.99
2022-09-16T00:21:43.956Z,91.29
2022-09-16T00:22:43.922Z,90.68
2022-09-16T00:23:43.975Z,90.58
2022-09-16T00:24:44.004Z,90.74
2022-09-16T00:25:43.919Z,90.64
2022-09-16T00:26:43.917Z,91.60
2022-09-16T00:27:43.915Z,90.94
2022-09-16T00:28:43.915Z,91.29
2022-09-16T00:29:43.913Z,91.45
2022-09-16T00:30:43.913Z,90.74
2022-09-16T00:31:43.930Z,91.65
2022-09-16T00:32:43.911Z,91.69
2022-09-16T00:33:43.912Z,91.29
2022-09-16T00:34:43.909Z,91.09
2022-09-16T00:35:43.906Z,90.78
2022-09-16T00:36:43.907Z,91.29
2022-09-16T00:37:43.931Z,90.99
2022-09-16T00:38:43.936Z,90.58
2022-09-16T00:39:43.903Z,90.68
2022-09-16T00:40:43.910Z,90.07
2022-09-16T00:41:43.902Z,90.88
2022-09-16T00:42:43.901Z,90.88
2022-09-16T00:43:43.900Z,90.48
2022-09-16T00:44:43.897Z,91.29
2022-09-16T00:45:43.902Z,90.11
2022-09-16T00:46:43.917Z,89.56
2022-09-16T00:47:43.895Z,89.91
2022-09-16T00:48:43.896Z,89.91
2022-09-16T00:49:43.893Z,89.61
2022-09-16T00:50:43.892Z,90.83
2022-09-16T00:51:43.889Z,90.52
2022-09-16T00:52:43.892Z,90.22
2022-09-16T00:53:43.995Z,90.46
2022-09-16T00:54:43.891Z,90.46
2022-09-16T00:55:43.884Z,90.46
2022-09-16T00:56:43.886Z,90.16
2022-09-16T00:57:43.883Z,90.56
2022-09-16T00:58:43.885Z,90.16
2022-09-16T00:59:43.880Z,90.36
2022-09-16T01:00:43.928Z,90.66
2022-09-16T01:01:43.937Z,89.95
2022-09-16T01:02:43.881Z,91.07
2022-09-16T01:03:43.877Z,91.58
2022-09-16T01:04:43.878Z,91.38
2022-09-16T01:05:43.877Z,91.38
2022-09-16T01:06:43.871Z,91.38
2022-09-16T01:07:43.871Z,91.31
2022-09-16T01:08:43.871Z,91.78
2022-09-16T01:09:43.892Z,91.62
2022-09-16T01:10:43.868Z,91.17
2022-09-16T01:11:43.866Z,91.42
2022-09-16T01:12:43.866Z,91.42
2022-09-16T01:13:43.864Z,91.68
2022-09-16T01:14:43.866Z,91.48
2022-09-16T01:15:43.862Z,91.58
2022-09-16T01:16:43.864Z,91.38
2022-09-16T01:17:43.867Z,90.97
2022-09-16T01:18:43.857Z,91.38
2022-09-16T01:19:43.857Z,90.91
2022-09-16T01:20:43.854Z,91.72
2022-09-16T01:21:43.854Z,90.81
2022-09-16T01:22:43.856Z,90.50
2022-09-16T01:23:43.879Z,90.40
2022-09-16T01:24:43.848Z,89.99
2022-09-16T01:25:43.875Z,90.40
2022-09-16T01:26:43.846Z,91.52
2022-09-16T01:27:43.847Z,91.42
2022-09-16T01:28:43.845Z,91.42
2022-09-16T01:29:43.849Z,91.22
2022-09-16T01:30:43.840Z,90.91
2022-09-16T01:31:43.904Z,91.01
2022-09-16T01:32:43.842Z,91.27
2022-09-16T01:33:43.840Z,91.42
2022-09-16T01:34:43.836Z,91.68
2022-09-16T01:35:43.841Z,91.72
2022-09-16T01:36:43.832Z,91.78
2022-09-16T01:37:43.840Z,91.78
2022-09-16T01:38:43.888Z,91.52
2022-09-16T01:39:43.833Z,91.38
2022-09-16T01:40:43.830Z,92.09
2022-09-16T01:41:43.848Z,91.62
2022-09-16T01:42:43.824Z,91.38
2022-09-16T01:43:43.828Z,91.07
2022-09-16T01:44:43.823Z,91.78
2022-09-16T01:45:43.828Z,91.78
2022-09-16T01:46:43.881Z,91.68
2022-09-16T01:47:43.822Z,91.78
2022-09-16T01:48:43.819Z,91.78
2022-09-16T01:49:43.818Z,92.90
2022-09-16T01:50:43.825Z,91.99
2022-09-16T01:51:43.815Z,93.01
2022-09-16T01:52:43.813Z,93.01
2022-09-16T01:53:43.872Z,92.70
2022-09-16T01:54:43.811Z,91.88
2022-09-16T01:55:43.811Z,92.80
2022-09-16T01:56:43.807Z,92.60
2022-09-16T01:57:43.827Z,93.21
2022-09-16T01:58:43.806Z,93.10
2022-09-16T01:59:43.808Z,93.21
2022-09-16T02:00:43.805Z,93.21
2022-09-16T02:01:43.925Z,92.40
2022-09-16T02:02:43.836Z,92.80
2022-09-16T02:03:43.800Z,92.80
2022-09-16T02:04:43.799Z,92.70
2022-09-16T02:05:43.799Z,93.31
2022-09-16T02:06:43.796Z,93.01
2022-09-16T02:07:43.795Z,93.01
2022-09-16T02:08:43.862Z,93.10
2022-09-16T02:09:43.798Z,93.21
2022-09-16T02:10:43.789Z,92.90
2022-09-16T02:11:43.791Z,93.01
2022-09-16T02:12:43.789Z,93.10
2022-09-16T02:13:43.813Z,93.01
2022-09-16T02:14:43.785Z,93.31
2022-09-16T02:15:43.838Z,93.21
2022-09-16T02:16:43.783Z,92.80
2022-09-16T02:17:43.783Z,93.31
2022-09-16T02:18:43.784Z,93.31
2022-09-16T02:19:44.136Z,93.31
2022-09-16T02:20:43.781Z,93.01
2022-09-16T02:21:46.072Z,93.10
2022-09-16T02:22:43.774Z,93.21
2022-09-16T02:23:43.787Z,93.01
2022-09-16T02:24:43.774Z,93.10
2022-09-16T02:25:43.774Z,93.01
2022-09-16T02:26:43.773Z,92.80
2022-09-16T02:27:43.770Z,91.78
2022-09-16T02:28:43.768Z,92.49
2022-09-16T02:29:43.788Z,93.31
2022-09-16T02:30:43.767Z,93.21
2022-09-16T02:31:43.765Z,92.80
2022-09-16T02:32:43.766Z,93.31
2022-09-16T02:33:43.767Z,93.10
2022-09-16T02:34:43.760Z,93.10
2022-09-16T02:35:43.764Z,93.21
2022-09-16T02:36:43.759Z,93.10
2022-09-16T02:37:43.757Z,93.62
2022-09-16T02:38:43.831Z,93.51
2022-09-16T02:39:43.755Z,93.01
2022-09-16T02:40:43.753Z,93.01
2022-09-16T02:41:43.761Z,92.90
2022-09-16T02:42:43.750Z,92.90
2022-09-16T02:43:43.753Z,93.01
2022-09-16T02:44:43.751Z,92.70
2022-09-16T02:45:43.769Z,92.80
2022-09-16T02:46:43.794Z,93.31
2022-09-16T02:47:43.746Z,93.31
2022-09-16T02:48:43.742Z,92.90
2022-09-16T02:49:43.743Z,92.09
2022-09-16T02:50:43.743Z,92.60
2022-09-16T02:51:43.741Z,92.70
2022-09-16T02:52:43.738Z,93.10
2022-09-16T02:53:43.782Z,92.70
2022-09-16T02:54:43.734Z,92.80
2022-09-16T02:55:43.736Z,93.01
2022-09-16T02:56:43.734Z,93.31
2022-09-16T02:57:43.736Z,93.31
2022-09-16T02:58:43.729Z,92.70
2022-09-16T02:59:43.731Z,92.80
2022-09-16T03:00:43.729Z,92.70
2022-09-16T03:01:43.792Z,92.80
2022-09-16T03:02:43.781Z,91.99
2022-09-16T03:03:43.730Z,92.70
2022-09-16T03:04:43.722Z,93.01
2022-09-16T03:05:43.727Z,92.49
2022-09-16T03:06:43.726Z,92.84
2022-09-16T03:07:43.726Z,92.74
2022-09-16T03:08:43.785Z,93.10
2022-09-16T03:09:43.718Z,93.21
2022-09-16T03:10:43.715Z,92.80
2022-09-16T03:11:43.719Z,93.10
2022-09-16T03:12:43.715Z,93.31
2022-09-16T03:13:43.723Z,93.31
2022-09-16T03:14:43.714Z,92.70
2022-09-16T03:15:43.814Z,92.70
2022-09-16T03:16:46.033Z,92.80
2022-09-16T03:17:43.726Z,93.21
2022-09-16T03:18:43.705Z,92.90
2022-09-16T03:19:43.704Z,93.21
2022-09-16T03:20:43.709Z,93.31
2022-09-16T03:21:43.704Z,93.10
2022-09-16T03:22:43.700Z,93.21
2022-09-16T03:23:43.809Z,93.01
2022-09-16T03:24:44.051Z,93.62
2022-09-16T03:25:43.706Z,93.21
2022-09-16T03:26:43.703Z,92.80
2022-09-16T03:27:43.700Z,93.62
2022-09-16T03:28:43.695Z,94.02
2022-09-16T03:29:45.808Z,93.92
2022-09-16T03:30:43.748Z,93.92
2022-09-16T03:31:43.694Z,94.12
2022-09-16T03:32:43.689Z,94.63
2022-09-16T03:33:43.710Z,94.53
2022-09-16T03:34:43.687Z,94.53
2022-09-16T03:35:43.687Z,94.63
2022-09-16T03:36:43.684Z,94.73
2022-09-16T03:37:43.686Z,95.45
2022-09-16T03:38:43.798Z,94.73
2022-09-16T03:39:43.684Z,94.23
2022-09-16T03:40:43.680Z,93.71
2022-09-16T03:41:43.682Z,93.41
2022-09-16T03:42:43.676Z,93.71
2022-09-16T03:43:43.678Z,93.51
2022-09-16T03:44:43.674Z,93.31
2022-09-16T03:45:43.676Z,93.51
2022-09-16T03:46:43.673Z,93.55
2022-09-16T03:47:43.673Z,93.51
2022-09-16T03:48:43.669Z,93.92
2022-09-16T03:49:43.797Z,93.82
2022-09-16T03:50:43.676Z,94.12
2022-09-16T03:51:43.667Z,93.82
2022-09-16T03:52:43.673Z,93.51
2022-09-16T03:53:43.763Z,93.21
2022-09-16T03:54:43.664Z,93.31
2022-09-16T03:55:43.660Z,93.10
2022-09-16T03:56:43.657Z,93.21
2022-09-16T03:57:43.666Z,93.10
2022-09-16T03:58:43.665Z,93.21
2022-09-16T03:59:43.663Z,93.10
2022-09-16T04:00:43.652Z,93.31
2022-09-16T04:01:43.702Z,93.15
2022-09-16T04:02:43.707Z,93.51
2022-09-16T04:03:43.653Z,93.82
2022-09-16T04:04:43.646Z,94.17
2022-09-16T04:05:43.666Z,93.96
2022-09-16T04:06:43.647Z,94.17
2022-09-16T04:07:43.648Z,94.37
2022-09-16T04:08:43.731Z,94.17
2022-09-16T04:09:43.645Z,94.07
2022-09-16T04:10:43.641Z,95.08
2022-09-16T04:11:43.646Z,94.68
2022-09-16T04:12:43.640Z,94.68
2022-09-16T04:13:43.639Z,94.57
2022-09-16T04:14:43.638Z,93.66
2022-09-16T04:15:43.705Z,93.15
2022-09-16T04:16:45.359Z,93.05
2022-09-16T04:17:43.637Z,93.05
2022-09-16T04:18:43.632Z,93.25
2022-09-16T04:19:43.633Z,93.25
2022-09-16T04:20:43.630Z,93.29
2022-09-16T04:21:43.665Z,93.09
2022-09-16T04:22:43.629Z,93.40
2022-09-16T04:23:43.690Z,92.89
2022-09-16T04:24:43.827Z,93.09
2022-09-16T04:25:43.622Z,93.29
2022-09-16T04:26:43.618Z,93.29
2022-09-16T04:27:43.623Z,93.50
2022-09-16T04:28:43.653Z,93.70
2022-09-16T04:29:43.627Z,93.40
2022-09-16T04:30:43.740Z,93.50
2022-09-16T04:31:43.618Z,93.80
2022-09-16T04:32:43.612Z,93.64
2022-09-16T04:33:43.614Z,93.70
2022-09-16T04:34:43.609Z,93.44
2022-09-16T04:35:43.610Z,93.64
2022-09-16T04:36:43.613Z,94.21
2022-09-16T04:37:43.624Z,94.15
2022-09-16T04:38:43.683Z,94.46
2022-09-16T04:39:43.605Z,94.46
2022-09-16T04:40:43.605Z,94.01
2022-09-16T04:41:43.633Z,95.13
2022-09-16T04:42:43.604Z,94.72
2022-09-16T04:43:43.600Z,94.82
2022-09-16T04:44:43.596Z,94.92
2022-09-16T04:45:43.601Z,94.52
2022-09-16T04:46:43.649Z,94.82
2022-09-16T04:47:43.594Z,94.72
2022-09-16T04:48:43.591Z,94.62
2022-09-16T04:49:43.593Z,95.08
2022-09-16T04:50:43.589Z,95.74
2022-09-16T04:51:43.595Z,95.33
2022-09-16T04:52:43.586Z,96.15
2022-09-16T04:53:43.609Z,95.94
2022-09-16T04:54:43.586Z,96.39
2022-09-16T04:55:43.585Z,97.31
2022-09-16T04:56:43.586Z,97.31
2022-09-16T04:57:43.583Z,97.31
2022-09-16T04:58:43.587Z,98.48
2022-09-16T04:59:43.578Z,98.58
2022-09-16T05:00:43.587Z,98.58
2022-09-16T05:01:43.637Z,99.29
2022-09-16T05:02:43.572Z,99.19
2022-09-16T05:03:43.683Z,99.70
2022-09-16T05:04:43.567Z,99.50
2022-09-16T05:05:43.574Z,99.50
2022-09-16T05:06:43.563Z,99.80
2022-09-16T05:07:43.566Z,99.99
2022-09-16T05:08:43.567Z,99.99
2022-09-16T05:09:43.598Z,99.91
2022-09-16T05:10:43.558Z,99.80
2022-09-16T05:11:43.559Z,99.80
2022-09-16T05:12:47.887Z,99.86
2022-09-16T05:13:43.558Z,99.96
2022-09-16T05:14:43.554Z,99.99
2022-09-16T05:15:47.564Z,99.96
2022-09-16T05:16:43.558Z,99.96
2022-09-16T05:17:51.670Z,99.86
2022-09-16T05:18:43.555Z,99.96
2022-09-16T05:19:43.552Z,99.76
2022-09-16T05:20:43.551Z,99.76
2022-09-16T05:21:43.545Z,99.66
2022-09-16T05:22:43.554Z,99.96
2022-09-16T05:23:47.044Z,99.81
2022-09-16T05:24:43.537Z,99.71
2022-09-16T05:25:43.652Z,99.81
2022-09-16T05:26:43.534Z,99.76
2022-09-16T05:27:43.533Z,99.41
2022-09-16T05:28:43.535Z,99.41
2022-09-16T05:29:43.533Z,99.00
2022-09-16T05:30:43.553Z,99.35
2022-09-16T05:31:43.528Z,98.94
2022-09-16T05:32:43.529Z,98.43
2022-09-16T05:33:43.571Z,98.43
2022-09-16T05:34:43.525Z,98.28
2022-09-16T05:35:43.523Z,98.49
2022-09-16T05:36:43.523Z,98.43
2022-09-16T05:37:43.519Z,98.90
2022-09-16T05:38:59.053Z,98.64
2022-09-16T05:39:43.517Z,98.90
2022-09-16T05:40:43.525Z,98.90
2022-09-16T05:41:43.631Z,98.79
2022-09-16T05:42:43.518Z,98.33
2022-09-16T05:43:43.508Z,98.64
2022-09-16T05:44:43.511Z,98.33
2022-09-16T05:45:43.557Z,98.84
2022-09-16T05:46:43.508Z,98.43
2022-09-16T05:47:43.503Z,98.43
2022-09-16T05:48:43.502Z,98.54
2022-09-16T05:49:43.502Z,98.64
2022-09-16T05:50:43.504Z,98.33
2022-09-16T05:51:43.501Z,98.64
2022-09-16T05:52:43.500Z,98.94
2022-09-16T05:53:43.495Z,98.94
2022-09-16T05:54:43.494Z,98.84
2022-09-16T05:55:43.493Z,98.84
2022-09-16T05:56:43.496Z,98.43
2022-09-16T05:57:43.607Z,98.74
2022-09-16T05:58:43.492Z,98.74
2022-09-16T05:59:43.494Z,98.99
2022-09-16T06:00:43.491Z,98.54
2022-09-16T06:01:43.578Z,98.64
2022-09-16T06:02:43.559Z,98.43
2022-09-16T06:03:43.483Z,99.04
2022-09-16T06:04:43.486Z,99.04
2022-09-16T06:05:45.805Z,99.55
2022-09-16T06:06:43.479Z,99.66
2022-09-16T06:07:43.478Z,99.76
2022-09-16T06:08:43.474Z,99.66
2022-09-16T06:09:43.472Z,99.86
2022-09-16T06:10:43.471Z,99.55
2022-09-16T06:11:43.471Z,99.55
2022-09-16T06:12:43.469Z,99.25
2022-09-16T06:13:43.584Z,99.66
2022-09-16T06:14:43.464Z,99.40
2022-09-16T06:15:43.515Z,99.45
2022-09-16T06:16:43.468Z,99.66
2022-09-16T06:17:43.462Z,99.76
2022-09-16T06:18:43.466Z,99.76
2022-09-16T06:19:43.457Z,99.25
2022-09-16T06:20:43.456Z,99.45
2022-09-16T06:21:43.458Z,99.66
2022-09-16T06:22:43.454Z,99.04
2022-09-16T06:23:43.451Z,99.04
2022-09-16T06:24:43.804Z,99.15
2022-09-16T06:25:43.450Z,99.25
2022-09-16T06:26:43.448Z,98.94
2022-09-16T06:27:43.446Z,99.45
2022-09-16T06:28:43.453Z,99.96
2022-09-16T06:29:43.556Z,99.15
2022-09-16T06:30:43.455Z,99.25
2022-09-16T06:31:43.439Z,98.64
2022-09-16T06:32:43.439Z,99.45
2022-09-16T06:33:43.438Z,99.45
2022-09-16T06:34:43.444Z,99.25
2022-09-16T06:35:43.435Z,98.84
2022-09-16T06:36:45.413Z,98.64
2022-09-16T06:37:43.440Z,99.04
2022-09-16T06:38:43.439Z,99.25
2022-09-16T06:39:43.431Z,99.04
2022-09-16T06:40:43.427Z,99.61
2022-09-16T06:41:43.426Z,99.25
2022-09-16T06:42:43.423Z,99.41
2022-09-16T06:43:43.425Z,99.66
2022-09-16T06:44:43.420Z,99.86
2022-09-16T06:45:43.568Z,99.96
2022-09-16T06:46:43.417Z,99.45
2022-09-16T06:47:43.421Z,99.86
2022-09-16T06:48:43.416Z,99.51
2022-09-16T06:49:43.413Z,99.51
2022-09-16T06:50:43.419Z,99.71
2022-09-16T06:51:43.410Z,99.20
2022-09-16T06:52:43.411Z,99.41
2022-09-16T06:53:43.410Z,99.30
2022-09-16T06:54:43.407Z,99.81
2022-09-16T06:55:43.405Z,99.26
2022-09-16T06:56:43.407Z,99.36
2022-09-16T06:57:43.402Z,99.51
2022-09-16T06:58:43.401Z,99.20
2022-09-16T06:59:43.399Z,99.56
2022-09-16T07:00:43.398Z,99.87
2022-09-16T07:01:43.606Z,99.16
2022-09-16T07:02:43.459Z,99.16
2022-09-16T07:03:43.392Z,98.75
2022-09-16T07:04:43.391Z,99.10
2022-09-16T07:05:43.398Z,99.20
2022-09-16T07:07:09.070Z,98.90
2022-09-16T07:07:43.388Z,98.59
2022-09-16T07:08:43.387Z,98.49
2022-09-16T07:09:43.386Z,98.59
2022-09-16T07:10:43.387Z,99.20
2022-09-16T07:11:43.382Z,99.61
2022-09-16T07:12:43.381Z,98.79
2022-09-16T07:13:43.381Z,99.20
2022-09-16T07:14:43.380Z,99.16
2022-09-16T07:16:09.172Z,99.71
2022-09-16T07:16:43.402Z,99.46
2022-09-16T07:17:43.487Z,99.51
2022-09-16T07:18:43.378Z,99.61
2022-09-16T07:19:43.376Z,98.95
2022-09-16T07:20:43.401Z,99.16
2022-09-16T07:21:43.369Z,99.16
2022-09-16T07:22:43.365Z,99.66
2022-09-16T07:23:43.366Z,99.77
2022-09-16T07:24:43.626Z,99.56
2022-09-16T07:25:43.363Z,99.26
2022-09-16T07:26:43.363Z,99.36
2022-09-16T07:27:43.359Z,99.26
2022-09-16T07:28:43.364Z,99.56
2022-09-16T07:29:43.357Z,99.56
2022-09-16T07:30:43.448Z,99.36
2022-09-16T07:31:43.357Z,99.36
2022-09-16T07:32:43.354Z,99.66
2022-09-16T07:33:43.472Z,99.31
2022-09-16T07:34:43.350Z,99.62
2022-09-16T07:35:43.352Z,99.66
2022-09-16T07:36:43.346Z,99.31
2022-09-16T07:37:43.364Z,99.62
2022-09-16T07:38:43.374Z,99.21
2022-09-16T07:39:43.345Z,99.11
2022-09-16T07:40:43.341Z,99.11
2022-09-16T07:41:43.350Z,98.44
2022-09-16T07:42:43.342Z,98.30
2022-09-16T07:43:43.339Z,98.19
2022-09-16T07:44:43.336Z,98.09
2022-09-16T07:45:43.368Z,98.19
2022-09-16T07:46:43.335Z,98.19
2022-09-16T07:47:43.334Z,98.50
2022-09-16T07:48:43.332Z,98.50
2022-09-16T07:49:43.446Z,98.45
2022-09-16T07:50:43.334Z,98.30
2022-09-16T07:51:43.502Z,98.14
2022-09-16T07:53:43.392Z,97.74
2022-09-16T07:54:43.325Z,97.33
2022-09-16T07:55:43.321Z,98.14
2022-09-16T07:56:43.322Z,97.74
2022-09-16T07:57:43.319Z,97.39
2022-09-16T07:58:43.319Z,97.08
2022-09-16T07:59:43.317Z,96.88
2022-09-16T08:00:43.320Z,96.37
2022-09-16T08:01:43.872Z,96.63
2022-09-16T08:02:43.361Z,95.72
2022-09-16T08:03:43.318Z,95.62
2022-09-16T08:04:43.315Z,95.98
2022-09-16T08:05:43.429Z,95.78
2022-09-16T08:06:43.320Z,95.73
2022-09-16T08:07:43.317Z,94.82
2022-09-16T08:08:43.316Z,94.92
2022-09-16T08:09:49.885Z,94.45
2022-09-16T08:10:43.315Z,93.33
2022-09-16T08:11:43.316Z,93.79
2022-09-16T08:12:43.312Z,94.50
2022-09-16T08:13:43.509Z,93.68
2022-09-16T08:14:43.318Z,93.48
2022-09-16T08:15:43.316Z,94.70
2022-09-16T08:16:43.395Z,94.70
2022-09-16T08:17:43.312Z,95.21
2022-09-16T08:18:43.355Z,95.01
2022-09-16T08:19:43.314Z,94.85
2022-09-16T08:20:43.311Z,94.64
2022-09-16T08:21:43.427Z,94.44
2022-09-16T08:22:43.312Z,95.36
2022-09-16T08:23:43.311Z,95.66
2022-09-16T08:24:43.578Z,94.48
2022-09-16T08:25:43.312Z,95.30
2022-09-16T08:26:43.396Z,94.85
2022-09-16T08:27:43.309Z,95.46
2022-09-16T08:29:07.383Z,94.28
2022-09-16T08:29:43.312Z,95.25
2022-09-16T08:30:43.311Z,95.40
2022-09-16T08:31:43.370Z,94.63
2022-09-16T08:32:43.313Z,93.77
2022-09-16T08:33:43.313Z,94.38
2022-09-16T08:34:43.635Z,94.32
2022-09-16T08:35:43.305Z,94.93
2022-09-16T08:36:43.308Z,95.09
2022-09-16T08:37:45.900Z,95.24
2022-09-16T08:38:43.433Z,95.14
2022-09-16T08:39:43.301Z,95.70
2022-09-16T08:40:43.303Z,95.45
2022-09-16T08:41:43.301Z,96.31
2022-09-16T08:42:43.299Z,95.81
2022-09-16T08:43:43.377Z,95.81
2022-09-16T08:44:43.302Z,96.62
2022-09-16T08:45:43.369Z,95.50
2022-09-16T08:46:43.296Z,95.30
2022-09-16T08:47:43.294Z,95.91
2022-09-16T08:48:43.293Z,94.48
2022-09-16T08:49:46.298Z,93.37
2022-09-16T08:50:43.302Z,93.87
2022-09-16T08:51:43.293Z,94.74
2022-09-16T08:52:43.288Z,94.95
2022-09-16T08:53:43.546Z,94.48
2022-09-16T08:54:43.289Z,93.67
2022-09-16T08:55:43.295Z,94.69
2022-09-16T08:56:44.997Z,94.28
2022-09-16T08:57:43.293Z,93.06
2022-09-16T08:58:43.285Z,92.96
2022-09-16T08:59:43.290Z,94.48
2022-09-16T09:00:43.405Z,93.47
2022-09-16T09:01:43.675Z,92.86
2022-09-16T09:02:44.163Z,93.06
2022-09-16T09:03:43.277Z,92.86
2022-09-16T09:04:43.291Z,93.57
2022-09-16T09:05:43.275Z,93.67
2022-09-16T09:06:43.275Z,93.57
2022-09-16T09:07:43.271Z,93.37
2022-09-16T09:08:43.272Z,91.74
2022-09-16T09:09:43.392Z,90.88
2022-09-16T09:10:43.269Z,89.97
2022-09-16T09:11:43.263Z,91.60
2022-09-16T09:12:43.648Z,90.88
2022-09-16T09:13:43.267Z,93.12
2022-09-16T09:14:43.259Z,92.86
2022-09-16T09:15:43.268Z,93.22
2022-09-16T09:16:43.342Z,92.61
2022-09-16T09:17:50.175Z,92.82
2022-09-16T09:18:43.256Z,90.88
2022-09-16T09:19:43.254Z,89.87
2022-09-16T09:20:43.254Z,90.07
2022-09-16T09:21:43.252Z,90.27
2022-09-16T09:22:45.561Z,89.52
2022-09-16T09:23:43.246Z,90.64
2022-09-16T09:24:43.451Z,89.52
2022-09-16T09:25:43.379Z,90.23
2022-09-16T09:26:43.444Z,90.13
2022-09-16T09:27:43.243Z,89.22
2022-09-16T09:28:43.240Z,89.83
2022-09-16T09:29:43.240Z,89.88
2022-09-16T09:30:43.238Z,89.22
2022-09-16T09:31:43.295Z,87.08
2022-09-16T09:32:49.388Z,85.76
2022-09-16T09:34:43.236Z,87.34
2022-09-16T09:35:43.229Z,88.46
2022-09-16T09:36:43.233Z,89.13
2022-09-16T09:37:43.228Z,87.65
2022-09-16T09:38:43.228Z,87.71
2022-09-16T09:39:43.225Z,88.12
2022-09-16T09:40:43.238Z,85.68
2022-09-16T09:41:43.348Z,82.78
2022-09-16T09:42:43.220Z,85.11
2022-09-16T09:43:43.221Z,85.92
2022-09-16T09:44:43.216Z,85.72
2022-09-16T09:45:43.297Z,86.37
2022-09-16T09:46:43.216Z,86.22
2022-09-16T09:47:43.212Z,86.68
2022-09-16T09:48:43.211Z,86.27
2022-09-16T09:49:43.212Z,87.69
2022-09-16T09:50:43.206Z,87.49
2022-09-16T09:51:43.211Z,86.88
2022-09-16T09:52:43.204Z,87.69
2022-09-16T09:53:43.292Z,87.08
2022-09-16T09:54:43.203Z,86.57
2022-09-16T09:55:43.198Z,87.29
2022-09-16T09:56:43.201Z,87.59
2022-09-16T09:57:43.327Z,87.79
2022-09-16T09:58:43.195Z,87.79
2022-09-16T09:59:43.197Z,88.40
2022-09-16T10:00:43.207Z,88.56
2022-09-16T10:01:43.220Z,88.60
2022-09-16T10:02:47.443Z,87.49
2022-09-16T10:03:43.192Z,86.07
2022-09-16T10:04:43.190Z,86.68
2022-09-16T10:05:43.185Z,86.27
2022-09-16T10:06:43.243Z,84.91
2022-09-16T10:07:43.196Z,85.55
2022-09-16T10:08:43.183Z,85.72
2022-09-16T10:09:43.185Z,87.65
2022-09-16T10:10:43.179Z,87.85
2022-09-16T10:11:43.182Z,87.14
2022-09-16T10:12:43.176Z,86.69
2022-09-16T10:13:43.303Z,87.81
2022-09-16T10:14:43.171Z,87.61
2022-09-16T10:15:43.169Z,85.98
2022-09-16T10:16:43.197Z,84.66
2022-09-16T10:17:43.168Z,83.51
2022-09-16T10:18:43.165Z,83.51
2022-09-16T10:19:43.169Z,84.72
2022-09-16T10:20:43.165Z,84.52
2022-09-16T10:21:43.162Z,84.22
2022-09-16T10:22:43.159Z,81.68
2022-09-16T10:23:43.159Z,81.52
2022-09-16T10:24:43.305Z,82.03
2022-09-16T10:25:43.152Z,83.14
2022-09-16T10:26:43.155Z,84.87
2022-09-16T10:27:43.152Z,85.98
2022-09-16T10:28:43.150Z,86.49
2022-09-16T10:29:43.278Z,85.98
2022-09-16T10:30:43.149Z,81.96
2022-09-16T10:31:43.188Z,83.18
2022-09-16T10:32:43.144Z,83.79
2022-09-16T10:33:43.149Z,84.20
2022-09-16T10:34:43.140Z,83.08
2022-09-16T10:35:43.140Z,85.21
2022-09-16T10:36:43.139Z,84.20
2022-09-16T10:37:43.138Z,83.99
2022-09-16T10:38:43.137Z,86.08
2022-09-16T10:39:43.136Z,84.91
2022-09-16T10:40:43.130Z,85.72
2022-09-16T10:41:43.131Z,85.62
2022-09-16T10:42:43.130Z,86.13
2022-09-16T10:43:43.128Z,85.17
2022-09-16T10:44:43.137Z,84.46
2022-09-16T10:45:43.267Z,84.46
2022-09-16T10:46:43.122Z,85.58
2022-09-16T10:47:43.137Z,85.92
2022-09-16T10:48:43.119Z,85.27
2022-09-16T10:49:43.120Z,85.88
2022-09-16T10:50:43.116Z,87.30
2022-09-16T10:51:43.116Z,85.88
2022-09-16T10:52:43.113Z,86.69
2022-09-16T10:53:44.737Z,88.68
2022-09-16T10:54:43.111Z,88.38
2022-09-16T10:55:43.112Z,88.07
2022-09-16T10:56:43.108Z,88.58
2022-09-16T10:57:43.109Z,89.50
2022-09-16T10:58:43.104Z,89.74
2022-09-16T10:59:43.105Z,88.62
2022-09-16T11:00:45.741Z,88.21
2022-09-16T11:01:45.640Z,87.55
2022-09-16T11:02:43.099Z,88.67
2022-09-16T11:03:43.102Z,88.46
2022-09-16T11:04:43.099Z,88.36
2022-09-16T11:05:43.118Z,88.46
2022-09-16T11:06:43.104Z,89.88
2022-09-16T11:07:43.102Z,88.06
2022-09-16T11:08:43.094Z,87.45
2022-09-16T11:09:43.095Z,86.22
2022-09-16T11:10:43.090Z,87.85
2022-09-16T11:11:43.092Z,86.22
2022-09-16T11:12:43.088Z,86.13
2022-09-16T11:13:43.089Z,84.13
2022-09-16T11:14:43.086Z,84.40
2022-09-16T11:15:43.085Z,85.31
2022-09-16T11:16:43.196Z,85.11
2022-09-16T11:17:43.212Z,85.92
2022-09-16T11:18:43.080Z,87.65
2022-09-16T11:19:43.081Z,85.62
2022-09-16T11:20:43.117Z,86.02
2022-09-16T11:21:43.077Z,86.63
2022-09-16T11:22:43.073Z,85.41
2022-09-16T11:23:43.075Z,84.70
2022-09-16T11:24:43.073Z,87.14
2022-09-16T11:25:43.082Z,87.20
2022-09-16T11:26:43.069Z,85.78
2022-09-16T11:27:43.067Z,85.72
2022-09-16T11:28:43.066Z,87.30
2022-09-16T11:29:43.067Z,86.90
2022-09-16T11:30:43.066Z,87.71
2022-09-16T11:31:43.149Z,86.39
2022-09-16T11:32:43.248Z,86.39
2022-09-16T11:33:43.185Z,85.47
2022-09-16T11:34:43.060Z,87.71
2022-09-16T11:35:43.062Z,85.53
2022-09-16T11:36:43.057Z,86.25
2022-09-16T11:37:43.061Z,85.94
2022-09-16T11:38:46.029Z,85.03
2022-09-16T11:39:43.054Z,86.41
2022-09-16T11:40:43.052Z,84.95
2022-09-16T11:41:43.053Z,85.09
2022-09-16T11:42:43.050Z,86.07
2022-09-16T11:43:43.049Z,85.05
2022-09-16T11:44:43.048Z,84.64
2022-09-16T11:45:43.057Z,84.95
2022-09-16T11:46:43.069Z,84.44
2022-09-16T11:47:43.047Z,82.72
2022-09-16T11:48:43.042Z,83.43
2022-09-16T11:49:43.180Z,80.83
2022-09-16T11:50:43.041Z,82.62
2022-09-16T11:51:43.047Z,82.25
2022-09-16T11:52:43.052Z,82.56
2022-09-16T11:53:44.955Z,81.81
2022-09-16T11:54:43.043Z,83.03
2022-09-16T11:55:43.035Z,84.04
2022-09-16T11:56:43.042Z,81.13
2022-09-16T11:57:43.041Z,81.74
2022-09-16T11:58:43.033Z,82.66
2022-09-16T11:59:43.044Z,81.85
2022-09-16T12:00:43.035Z,83.81
2022-09-16T12:01:43.111Z,84.16
2022-09-16T12:02:43.091Z,84.77
2022-09-16T12:03:43.032Z,85.72
2022-09-16T12:04:43.027Z,86.22
2022-09-16T12:05:43.152Z,88.06
2022-09-16T12:06:43.023Z,87.55
2022-09-16T12:07:43.021Z,86.98
2022-09-16T12:08:43.018Z,87.18
2022-09-16T12:09:43.021Z,88.71
2022-09-16T12:10:43.030Z,90.94
2022-09-16T12:11:43.016Z,91.65
2022-09-16T12:12:43.021Z,92.30
2022-09-16T12:13:43.015Z,93.22
2022-09-16T12:14:43.008Z,93.22
2022-09-16T12:15:43.007Z,93.52
2022-09-16T12:16:43.008Z,94.59
2022-09-16T12:17:43.015Z,95.09
2022-09-16T12:18:43.008Z,95.70
2022-09-16T12:19:43.012Z,95.65
2022-09-16T12:20:43.002Z,95.85
2022-09-16T12:21:43.125Z,96.15
2022-09-16T12:22:43.001Z,96.36
2022-09-16T12:23:43.000Z,95.79
2022-09-16T12:24:42.997Z,96.10
2022-09-16T12:25:46.109Z,96.71
2022-09-16T12:26:42.989Z,96.71
2022-09-16T12:27:42.997Z,96.51
2022-09-16T12:28:42.990Z,96.71
2022-09-16T12:29:42.991Z,96.96
2022-09-16T12:30:42.986Z,97.02
2022-09-16T12:31:43.050Z,96.86
2022-09-16T12:32:42.987Z,96.04
2022-09-16T12:33:42.979Z,96.66
2022-09-16T12:34:42.977Z,96.66
2022-09-16T12:35:42.978Z,97.06
2022-09-16T12:36:42.973Z,97.12
2022-09-16T12:37:43.103Z,97.47
2022-09-16T12:38:42.970Z,97.57
2022-09-16T12:39:42.969Z,97.57
2022-09-16T12:40:42.971Z,96.66
2022-09-16T12:41:42.969Z,96.15
2022-09-16T12:42:45.998Z,96.55
2022-09-16T12:43:42.981Z,95.94
2022-09-16T12:44:42.960Z,95.94
2022-09-16T12:45:42.959Z,95.53
2022-09-16T12:46:43.058Z,95.74
2022-09-16T12:47:42.965Z,95.23
2022-09-16T12:48:42.955Z,95.17
2022-09-16T12:49:42.953Z,95.23
2022-09-16T12:50:42.953Z,94.46
2022-09-16T12:51:44.971Z,93.74
2022-09-16T12:52:42.949Z,94.92
2022-09-16T12:53:43.077Z,95.03
2022-09-16T12:55:04.138Z,94.82